sensor_id;sensor_type;location;lat;lon;timestamp;pressure;altitude;pressure_sealevel;temperature;humidity
10482;BME280;5288;42.334;23.876;2023-05-01T00:01:39;56365.66;;;-140.56;77.97
10482;BME280;5288;42.334;23.876;2023-05-01T00:04:06;56357.75;;;-140.56;77.72
10482;BME280;5288;42.334;23.876;2023-05-01T00:06:33;56357.75;;;-140.56;77.24
10482;BME280;5288;42.334;23.876;2023-05-01T00:09:01;56343.91;;;-140.56;77.22
10482;BME280;5288;42.334;23.876;2023-05-01T00:11:29;56351.81;;;-140.56;77.44
10482;BME280;5288;42.334;23.876;2023-05-01T00:13:56;56353.78;;;-140.56;77.39
10482;BME280;5288;42.334;23.876;2023-05-01T00:16:23;56343.91;;;-140.56;77.48
10482;BME280;5288;42.334;23.876;2023-05-01T00:18:50;56373.56;;;-140.56;77.31
10482;BME280;5288;42.334;23.876;2023-05-01T00:21:17;56345.88;;;-140.56;77.33
10482;BME280;5288;42.334;23.876;2023-05-01T00:23:44;56387.38;;;-140.56;77.95
10482;BME280;5288;42.334;23.876;2023-05-01T00:26:11;56359.72;;;-140.56;78.17
10482;BME280;5288;42.334;23.876;2023-05-01T00:28:40;56322.16;;;-140.56;77.87
10482;BME280;5288;42.334;23.876;2023-05-01T00:31:09;56322.16;;;-140.56;78.31
10482;BME280;5288;42.334;23.876;2023-05-01T00:33:42;56357.75;;;-140.56;78.46
10482;BME280;5288;42.334;23.876;2023-05-01T00:36:09;56353.78;;;-140.56;77.92
10482;BME280;5288;42.334;23.876;2023-05-01T00:38:41;56330.06;;;-140.56;78.27
10482;BME280;5288;42.334;23.876;2023-05-01T00:41:08;56373.56;;;-140.56;78.66
10482;BME280;5288;42.334;23.876;2023-05-01T00:43:35;56347.84;;;-140.56;78.10
10482;BME280;5288;42.334;23.876;2023-05-01T00:46:04;56391.34;;;-140.56;78.07
10482;BME280;5288;42.334;23.876;2023-05-01T00:48:31;56365.66;;;-140.56;78.39
10482;BME280;5288;42.334;23.876;2023-05-01T00:50:59;56369.59;;;-140.56;78.21
10482;BME280;5288;42.334;23.876;2023-05-01T00:53:27;56359.72;;;-140.56;77.73
10482;BME280;5288;42.334;23.876;2023-05-01T00:55:55;56349.84;;;-140.56;78.07
10482;BME280;5288;42.334;23.876;2023-05-01T00:58:24;56341.94;;;-140.56;78.30
10482;BME280;5288;42.334;23.876;2023-05-01T01:00:51;56377.50;;;-140.56;78.03
10482;BME280;5288;42.334;23.876;2023-05-01T01:03:20;56347.84;;;-140.56;78.09
10482;BME280;5288;42.334;23.876;2023-05-01T01:05:50;56361.69;;;-140.56;78.20
10482;BME280;5288;42.334;23.876;2023-05-01T01:08:24;56347.84;;;-140.56;78.06
10482;BME280;5288;42.334;23.876;2023-05-01T01:10:56;56377.50;;;-140.56;79.05
10482;BME280;5288;42.334;23.876;2023-05-01T01:13:29;56369.59;;;-140.56;80.22
10482;BME280;5288;42.334;23.876;2023-05-01T01:16:04;56375.53;;;-140.56;80.55
10482;BME280;5288;42.334;23.876;2023-05-01T01:18:39;56387.38;;;-140.56;81.68
10482;BME280;5288;42.334;23.876;2023-05-01T01:21:11;56383.44;;;-140.56;81.58
10482;BME280;5288;42.334;23.876;2023-05-01T01:24:11;56345.88;;;-140.56;81.71
10482;BME280;5288;42.334;23.876;2023-05-01T01:26:56;56357.75;;;-140.56;81.91
10482;BME280;5288;42.334;23.876;2023-05-01T01:29:42;56371.56;;;-140.56;81.70
10482;BME280;5288;42.334;23.876;2023-05-01T01:32:31;56367.63;;;-140.56;81.79
10482;BME280;5288;42.334;23.876;2023-05-01T01:35:03;56345.88;;;-140.56;81.42
10482;BME280;5288;42.334;23.876;2023-05-01T01:37:38;56381.44;;;-140.56;82.28
10482;BME280;5288;42.334;23.876;2023-05-01T01:40:09;56363.66;;;-140.56;81.88
10482;BME280;5288;42.334;23.876;2023-05-01T01:42:41;56361.69;;;-140.56;82.45
10482;BME280;5288;42.334;23.876;2023-05-01T01:45:12;56339.94;;;-140.56;82.17
10482;BME280;5288;42.334;23.876;2023-05-01T01:47:41;56336.00;;;-140.56;82.05
10482;BME280;5288;42.334;23.876;2023-05-01T01:50:11;56357.75;;;-140.56;82.02
10482;BME280;5288;42.334;23.876;2023-05-01T01:52:41;56351.81;;;-140.56;81.79
10482;BME280;5288;42.334;23.876;2023-05-01T01:55:12;56389.34;;;-140.56;81.60
10482;BME280;5288;42.334;23.876;2023-05-01T01:57:40;56359.72;;;-140.56;81.59
10482;BME280;5288;42.334;23.876;2023-05-01T02:00:09;56363.66;;;-140.56;81.49
10482;BME280;5288;42.334;23.876;2023-05-01T02:02:41;56337.97;;;-140.56;81.00
10482;BME280;5288;42.334;23.876;2023-05-01T02:05:13;56343.91;;;-140.56;81.05
10482;BME280;5288;42.334;23.876;2023-05-01T02:07:41;56395.28;;;-140.56;80.70
10482;BME280;5288;42.334;23.876;2023-05-01T02:10:11;56367.63;;;-140.56;81.12
10482;BME280;5288;42.334;23.876;2023-05-01T02:12:39;56381.44;;;-140.56;81.02
10482;BME280;5288;42.334;23.876;2023-05-01T02:15:09;56355.75;;;-140.56;80.37
10482;BME280;5288;42.334;23.876;2023-05-01T02:17:37;56355.75;;;-140.56;80.80
10482;BME280;5288;42.334;23.876;2023-05-01T02:20:06;56371.56;;;-140.56;80.37
10482;BME280;5288;42.334;23.876;2023-05-01T02:22:37;56391.34;;;-140.56;79.93
10482;BME280;5288;42.334;23.876;2023-05-01T02:25:06;56383.44;;;-140.56;79.22
10482;BME280;5288;42.334;23.876;2023-05-01T02:27:38;56365.66;;;-140.56;78.69
10482;BME280;5288;42.334;23.876;2023-05-01T02:30:07;56373.56;;;-140.56;78.71
10482;BME280;5288;42.334;23.876;2023-05-01T02:32:34;56359.72;;;-140.56;78.03
10482;BME280;5288;42.334;23.876;2023-05-01T02:35:01;56361.69;;;-140.56;77.83
10482;BME280;5288;42.334;23.876;2023-05-01T02:37:28;56373.56;;;-140.56;77.62
10482;BME280;5288;42.334;23.876;2023-05-01T02:39:57;56373.56;;;-140.56;77.75
10482;BME280;5288;42.334;23.876;2023-05-01T02:42:25;56385.41;;;-140.56;78.21
10482;BME280;5288;42.334;23.876;2023-05-01T02:44:56;56385.41;;;-140.56;78.57
10482;BME280;5288;42.334;23.876;2023-05-01T02:47:26;56355.75;;;-140.56;78.59
10482;BME280;5288;42.334;23.876;2023-05-01T02:49:53;56379.47;;;-140.56;78.60
10482;BME280;5288;42.334;23.876;2023-05-01T02:52:22;56375.53;;;-140.56;77.88
10482;BME280;5288;42.334;23.876;2023-05-01T02:54:49;56397.25;;;-140.56;77.84
10482;BME280;5288;42.334;23.876;2023-05-01T02:57:18;56359.72;;;-140.56;77.10
10482;BME280;5288;42.334;23.876;2023-05-01T02:59:45;56395.28;;;-140.56;76.59
10482;BME280;5288;42.334;23.876;2023-05-01T03:02:12;56369.59;;;-140.56;76.56
10482;BME280;5288;42.334;23.876;2023-05-01T03:04:40;56379.47;;;-140.56;76.19
10482;BME280;5288;42.334;23.876;2023-05-01T03:07:08;56330.06;;;-140.56;75.83
10482;BME280;5288;42.334;23.876;2023-05-01T03:09:35;56357.75;;;-140.56;75.74
10482;BME280;5288;42.334;23.876;2023-05-01T03:12:02;56371.56;;;-140.56;75.65
10482;BME280;5288;42.334;23.876;2023-05-01T03:14:31;56413.06;;;-140.56;75.89
10482;BME280;5288;42.334;23.876;2023-05-01T03:17:01;56383.44;;;-140.56;77.08
10482;BME280;5288;42.334;23.876;2023-05-01T03:19:28;56359.72;;;-140.56;78.26
10482;BME280;5288;42.334;23.876;2023-05-01T03:21:55;56389.34;;;-140.56;78.30
10482;BME280;5288;42.334;23.876;2023-05-01T03:24:23;56381.44;;;-140.56;78.30
10482;BME280;5288;42.334;23.876;2023-05-01T03:26:50;56401.22;;;-140.56;78.87
10482;BME280;5288;42.334;23.876;2023-05-01T03:29:17;56365.66;;;-140.56;79.12
10482;BME280;5288;42.334;23.876;2023-05-01T03:31:45;56381.44;;;-140.56;78.95
10482;BME280;5288;42.334;23.876;2023-05-01T03:34:12;56424.94;;;-140.56;78.83
10482;BME280;5288;42.334;23.876;2023-05-01T03:36:39;56442.72;;;-140.56;79.49
10482;BME280;5288;42.334;23.876;2023-05-01T03:39:06;56399.25;;;-140.56;79.75
10482;BME280;5288;42.334;23.876;2023-05-01T03:41:33;56383.44;;;-140.56;80.06
10482;BME280;5288;42.334;23.876;2023-05-01T03:44:00;56413.06;;;-140.56;80.86
10482;BME280;5288;42.334;23.876;2023-05-01T03:46:27;56389.34;;;-140.56;81.71
10482;BME280;5288;42.334;23.876;2023-05-01T03:48:56;56397.25;;;-140.56;82.09
10482;BME280;5288;42.334;23.876;2023-05-01T03:51:23;56385.41;;;-140.56;82.90
10482;BME280;5288;42.334;23.876;2023-05-01T03:53:50;56361.69;;;-140.56;83.27
10482;BME280;5288;42.334;23.876;2023-05-01T03:56:17;56399.25;;;-140.56;83.74
10482;BME280;5288;42.334;23.876;2023-05-01T03:58:44;56379.47;;;-140.56;83.80
10482;BME280;5288;42.334;23.876;2023-05-01T04:01:11;56355.75;;;-140.56;83.96
10482;BME280;5288;42.334;23.876;2023-05-01T04:03:39;56395.28;;;-140.56;84.34
10482;BME280;5288;42.334;23.876;2023-05-01T04:06:07;56393.31;;;-140.56;84.36
10482;BME280;5288;42.334;23.876;2023-05-01T04:08:34;56379.47;;;-140.56;84.23
10482;BME280;5288;42.334;23.876;2023-05-01T04:11:01;56383.44;;;-140.56;83.90
10482;BME280;5288;42.334;23.876;2023-05-01T04:13:28;56420.97;;;-140.56;83.90
10482;BME280;5288;42.334;23.876;2023-05-01T04:15:55;56377.50;;;-140.56;83.91
10482;BME280;5288;42.334;23.876;2023-05-01T04:18:23;56369.59;;;-140.56;83.51
10482;BME280;5288;42.334;23.876;2023-05-01T04:20:50;56385.41;;;-140.56;83.74
10482;BME280;5288;42.334;23.876;2023-05-01T04:23:19;56383.44;;;-140.56;83.31
10482;BME280;5288;42.334;23.876;2023-05-01T04:25:46;56407.16;;;-140.56;83.34
10482;BME280;5288;42.334;23.876;2023-05-01T04:28:13;56405.16;;;-140.56;83.17
10482;BME280;5288;42.334;23.876;2023-05-01T04:30:40;56367.63;;;-140.56;83.48
10482;BME280;5288;42.334;23.876;2023-05-01T04:33:07;56359.72;;;-140.56;82.90
10482;BME280;5288;42.334;23.876;2023-05-01T04:35:36;56399.25;;;-140.56;82.59
10482;BME280;5288;42.334;23.876;2023-05-01T04:38:03;56389.34;;;-140.56;81.79
10482;BME280;5288;42.334;23.876;2023-05-01T04:40:32;56371.56;;;-140.56;81.64
10482;BME280;5288;42.334;23.876;2023-05-01T04:42:59;56393.31;;;-140.56;82.10
10482;BME280;5288;42.334;23.876;2023-05-01T04:45:26;56371.56;;;-140.56;81.86
10482;BME280;5288;42.334;23.876;2023-05-01T04:47:53;56403.19;;;-140.56;81.73
10482;BME280;5288;42.334;23.876;2023-05-01T04:50:20;56387.38;;;-140.56;81.48
10482;BME280;5288;42.334;23.876;2023-05-01T04:52:47;56373.56;;;-140.56;81.52
10482;BME280;5288;42.334;23.876;2023-05-01T04:55:15;56373.56;;;-140.56;81.34
10482;BME280;5288;42.334;23.876;2023-05-01T04:57:44;56387.38;;;-140.56;81.31
10482;BME280;5288;42.334;23.876;2023-05-01T05:00:11;56351.81;;;-140.56;81.14
10482;BME280;5288;42.334;23.876;2023-05-01T05:02:39;56411.09;;;-140.56;80.43
10482;BME280;5288;42.334;23.876;2023-05-01T05:05:06;56345.88;;;-140.56;80.40
10482;BME280;5288;42.334;23.876;2023-05-01T05:07:33;56369.59;;;-140.56;80.46
10482;BME280;5288;42.334;23.876;2023-05-01T05:10:00;56343.91;;;-140.56;79.76
10482;BME280;5288;42.334;23.876;2023-05-01T05:12:27;56347.84;;;-140.56;79.53
10482;BME280;5288;42.334;23.876;2023-05-01T05:14:55;56336.00;;;-140.56;78.45
10482;BME280;5288;42.334;23.876;2023-05-01T05:17:23;56332.03;;;-140.56;77.57
10482;BME280;5288;42.334;23.876;2023-05-01T05:19:50;56334.03;;;-140.56;77.08
10482;BME280;5288;42.334;23.876;2023-05-01T05:22:17;56367.63;;;-140.56;76.86
10482;BME280;5288;42.334;23.876;2023-05-01T05:24:44;56320.19;;;-140.56;76.35
10482;BME280;5288;42.334;23.876;2023-05-01T05:27:11;56363.66;;;-140.56;75.54
10482;BME280;5288;42.334;23.876;2023-05-01T05:29:38;56302.41;;;-140.56;74.72
10482;BME280;5288;42.334;23.876;2023-05-01T05:32:06;56334.03;;;-140.56;74.34
10482;BME280;5288;42.334;23.876;2023-05-01T05:34:33;56328.09;;;-140.56;73.84
10482;BME280;5288;42.334;23.876;2023-05-01T05:37:00;56332.03;;;-140.56;73.35
10482;BME280;5288;42.334;23.876;2023-05-01T05:39:27;56304.38;;;-140.56;72.69
10482;BME280;5288;42.334;23.876;2023-05-01T05:41:55;56353.78;;;-140.56;72.44
10482;BME280;5288;42.334;23.876;2023-05-01T05:44:22;56330.06;;;-140.56;71.28
10482;BME280;5288;42.334;23.876;2023-05-01T05:46:49;56302.41;;;-140.56;70.86
10482;BME280;5288;42.334;23.876;2023-05-01T05:49:17;56300.44;;;-140.56;69.68
10482;BME280;5288;42.334;23.876;2023-05-01T05:51:44;56292.53;;;-140.56;69.50
10482;BME280;5288;42.334;23.876;2023-05-01T05:54:11;56286.59;;;-140.56;69.77
10482;BME280;5288;42.334;23.876;2023-05-01T05:56:38;56296.47;;;-140.56;69.51
10482;BME280;5288;42.334;23.876;2023-05-01T05:59:05;56284.63;;;-140.56;69.11
10482;BME280;5288;42.334;23.876;2023-05-01T06:01:32;56290.53;;;-140.56;67.86
10482;BME280;5288;42.334;23.876;2023-05-01T06:03:59;56251.03;;;-140.56;67.61
10482;BME280;5288;42.334;23.876;2023-05-01T06:06:27;56262.88;;;-140.56;67.38
10482;BME280;5288;42.334;23.876;2023-05-01T06:08:54;56278.69;;;-140.56;66.54
10482;BME280;5288;42.334;23.876;2023-05-01T06:11:21;56276.72;;;-140.56;66.70
10482;BME280;5288;42.334;23.876;2023-05-01T06:13:48;56253.00;;;-140.56;65.99
10482;BME280;5288;42.334;23.876;2023-05-01T06:16:15;56276.72;;;-140.56;65.44
10482;BME280;5288;42.334;23.876;2023-05-01T06:18:42;56235.22;;;-140.56;64.13
10482;BME280;5288;42.334;23.876;2023-05-01T06:21:09;56225.31;;;-140.56;63.83
10482;BME280;5288;42.334;23.876;2023-05-01T06:23:38;56239.16;;;-140.56;62.93
10482;BME280;5288;42.334;23.876;2023-05-01T06:26:05;56231.25;;;-140.56;62.87
10482;BME280;5288;42.334;23.876;2023-05-01T06:28:32;56239.16;;;-140.56;62.87
10482;BME280;5288;42.334;23.876;2023-05-01T06:30:59;56243.13;;;-140.56;62.25
10482;BME280;5288;42.334;23.876;2023-05-01T06:33:26;56258.94;;;-140.56;61.87
10482;BME280;5288;42.334;23.876;2023-05-01T06:35:53;56243.13;;;-140.56;60.76
10482;BME280;5288;42.334;23.876;2023-05-01T06:38:24;56199.63;;;-140.56;60.36
10482;BME280;5288;42.334;23.876;2023-05-01T06:40:52;56213.47;;;-140.56;59.70
10482;BME280;5288;42.334;23.876;2023-05-01T06:43:19;56195.69;;;-140.56;59.98
10482;BME280;5288;42.334;23.876;2023-05-01T06:45:46;56193.72;;;-140.56;59.71
10482;BME280;5288;42.334;23.876;2023-05-01T06:48:13;56217.41;;;-140.56;59.13
10482;BME280;5288;42.334;23.876;2023-05-01T06:50:40;56201.63;;;-140.56;57.45
10482;BME280;5288;42.334;23.876;2023-05-01T06:53:07;56177.91;;;-140.56;57.89
10482;BME280;5288;42.334;23.876;2023-05-01T06:55:34;56175.91;;;-140.56;56.74
10482;BME280;5288;42.334;23.876;2023-05-01T06:58:03;56191.72;;;-140.56;56.28
10482;BME280;5288;42.334;23.876;2023-05-01T07:00:31;56223.34;;;-140.56;56.74
10482;BME280;5288;42.334;23.876;2023-05-01T07:02:58;56191.72;;;-140.56;55.24
10482;BME280;5288;42.334;23.876;2023-05-01T07:05:25;56177.91;;;-140.56;55.34
10482;BME280;5288;42.334;23.876;2023-05-01T07:07:52;56175.91;;;-140.56;52.57
10482;BME280;5288;42.334;23.876;2023-05-01T07:10:19;56170.00;;;-140.56;52.37
10482;BME280;5288;42.334;23.876;2023-05-01T07:12:47;56170.00;;;-140.56;54.03
10482;BME280;5288;42.334;23.876;2023-05-01T07:15:16;56162.09;;;-140.56;54.48
10482;BME280;5288;42.334;23.876;2023-05-01T07:17:43;56164.06;;;-140.56;52.54
10482;BME280;5288;42.334;23.876;2023-05-01T07:20:11;56142.31;;;-140.56;51.70
10482;BME280;5288;42.334;23.876;2023-05-01T07:22:38;56140.34;;;-140.56;50.57
10482;BME280;5288;42.334;23.876;2023-05-01T07:25:06;56181.84;;;-140.56;51.40
10482;BME280;5288;42.334;23.876;2023-05-01T07:27:33;56134.41;;;-140.56;51.60
10482;BME280;5288;42.334;23.876;2023-05-01T07:30:00;56112.69;;;-140.56;50.29
10482;BME280;5288;42.334;23.876;2023-05-01T07:32:36;56128.50;;;-140.56;49.74
10482;BME280;5288;42.334;23.876;2023-05-01T07:35:23;56126.50;;;-140.56;47.24
10482;BME280;5288;42.334;23.876;2023-05-01T07:37:51;56108.72;;;-140.56;47.93
10482;BME280;5288;42.334;23.876;2023-05-01T07:40:18;56120.59;;;-140.56;46.19
10482;BME280;5288;42.334;23.876;2023-05-01T07:42:45;56166.03;;;-140.56;45.98
10482;BME280;5288;42.334;23.876;2023-05-01T07:45:12;56126.50;;;-140.56;45.50
10482;BME280;5288;42.334;23.876;2023-05-01T07:47:40;56124.53;;;-140.56;45.51
10482;BME280;5288;42.334;23.876;2023-05-01T07:50:10;56160.13;;;-140.56;47.14
10482;BME280;5288;42.334;23.876;2023-05-01T07:52:38;56158.13;;;-140.56;48.22
10482;BME280;5288;42.334;23.876;2023-05-01T07:55:10;56160.13;;;-140.56;45.07
10482;BME280;5288;42.334;23.876;2023-05-01T07:57:52;56154.19;;;-140.56;44.75
10482;BME280;5288;42.334;23.876;2023-05-01T08:00:19;56138.38;;;-140.56;46.88
10482;BME280;5288;42.334;23.876;2023-05-01T08:02:55;56126.50;;;-140.56;43.45
10482;BME280;5288;42.334;23.876;2023-05-01T08:05:22;56092.91;;;-140.56;44.31
10482;BME280;5288;42.334;23.876;2023-05-01T08:07:57;56108.72;;;-140.56;44.35
10482;BME280;5288;42.334;23.876;2023-05-01T08:10:27;56071.19;;;-140.56;45.78
10482;BME280;5288;42.334;23.876;2023-05-01T08:12:54;56079.09;;;-140.56;45.38
10482;BME280;5288;42.334;23.876;2023-05-01T08:15:21;56063.28;;;-140.56;42.78
10482;BME280;5288;42.334;23.876;2023-05-01T08:17:48;56098.84;;;-140.56;41.47
10482;BME280;5288;42.334;23.876;2023-05-01T08:20:22;56124.53;;;-140.56;42.10
10482;BME280;5288;42.334;23.876;2023-05-01T08:22:56;56112.69;;;-140.56;41.75
10482;BME280;5288;42.334;23.876;2023-05-01T08:25:23;56112.69;;;-140.56;41.73
10482;BME280;5288;42.334;23.876;2023-05-01T08:27:50;56098.84;;;-140.56;41.16
10482;BME280;5288;42.334;23.876;2023-05-01T08:30:17;56092.91;;;-140.56;40.58
10482;BME280;5288;42.334;23.876;2023-05-01T08:32:45;56081.06;;;-140.56;41.01
10482;BME280;5288;42.334;23.876;2023-05-01T08:35:12;56075.13;;;-140.56;40.73
10482;BME280;5288;42.334;23.876;2023-05-01T08:37:40;56085.00;;;-140.56;40.47
10482;BME280;5288;42.334;23.876;2023-05-01T08:40:08;56081.06;;;-140.56;40.59
10482;BME280;5288;42.334;23.876;2023-05-01T08:42:35;56077.09;;;-140.56;42.07
10482;BME280;5288;42.334;23.876;2023-05-01T08:45:09;56114.66;;;-140.56;42.08
10482;BME280;5288;42.334;23.876;2023-05-01T08:47:38;56098.84;;;-140.56;41.42
10482;BME280;5288;42.334;23.876;2023-05-01T08:50:08;56094.91;;;-140.56;42.06
10482;BME280;5288;42.334;23.876;2023-05-01T08:52:37;56088.97;;;-140.56;41.46
10482;BME280;5288;42.334;23.876;2023-05-01T08:55:11;56110.72;;;-140.56;41.66
10482;BME280;5288;42.334;23.876;2023-05-01T08:57:38;56106.75;;;-140.56;41.35
10482;BME280;5288;42.334;23.876;2023-05-01T09:00:07;56124.53;;;-140.56;42.77
10482;BME280;5288;42.334;23.876;2023-05-01T09:02:37;56100.81;;;-140.56;41.79
10482;BME280;5288;42.334;23.876;2023-05-01T09:05:06;56124.53;;;-140.56;46.05
10482;BME280;5288;42.334;23.876;2023-05-01T09:07:43;56106.75;;;-140.56;53.77
10482;BME280;5288;42.334;23.876;2023-05-01T09:10:13;56130.47;;;-140.56;56.94
10482;BME280;5288;42.334;23.876;2023-05-01T09:12:41;56166.03;;;-140.56;62.38
10482;BME280;5288;42.334;23.876;2023-05-01T09:15:11;56146.28;;;-140.56;62.73
10482;BME280;5288;42.334;23.876;2023-05-01T09:17:39;56170.00;;;-140.56;65.22
10482;BME280;5288;42.334;23.876;2023-05-01T09:20:07;56162.09;;;-140.56;66.22
10482;BME280;5288;42.334;23.876;2023-05-01T09:22:34;56179.88;;;-140.56;66.55
10482;BME280;5288;42.334;23.876;2023-05-01T09:25:01;56185.81;;;-140.56;67.84
10482;BME280;5288;42.334;23.876;2023-05-01T09:27:33;56187.78;;;-140.56;69.23
10482;BME280;5288;42.334;23.876;2023-05-01T09:30:01;56168.00;;;-140.56;69.92
10482;BME280;5288;42.334;23.876;2023-05-01T09:32:28;56171.97;;;-140.56;70.30
10482;BME280;5288;42.334;23.876;2023-05-01T09:35:08;56152.22;;;-140.56;67.88
10482;BME280;5288;42.334;23.876;2023-05-01T09:37:35;56170.00;;;-140.56;67.44
10482;BME280;5288;42.334;23.876;2023-05-01T09:40:07;56158.13;;;-140.56;69.13
10482;BME280;5288;42.334;23.876;2023-05-01T09:42:36;56177.91;;;-140.56;68.51
10482;BME280;5288;42.334;23.876;2023-05-01T09:45:06;56171.97;;;-140.56;69.46
10482;BME280;5288;42.334;23.876;2023-05-01T09:47:39;56150.22;;;-140.56;72.14
10482;BME280;5288;42.334;23.876;2023-05-01T09:50:07;56156.16;;;-140.56;68.55
10482;BME280;5288;42.334;23.876;2023-05-01T09:52:35;56189.75;;;-140.56;64.02
10482;BME280;5288;42.334;23.876;2023-05-01T09:55:12;56170.00;;;-140.56;63.44
10482;BME280;5288;42.334;23.876;2023-05-01T09:57:41;56140.34;;;-140.56;55.83
10482;BME280;5288;42.334;23.876;2023-05-01T10:00:09;56126.50;;;-140.56;52.30
10482;BME280;5288;42.334;23.876;2023-05-01T10:02:37;56120.59;;;-140.56;47.49
10482;BME280;5288;42.334;23.876;2023-05-01T10:05:05;56102.81;;;-140.56;51.80
10482;BME280;5288;42.334;23.876;2023-05-01T10:07:36;56130.47;;;-140.56;44.64
10482;BME280;5288;42.334;23.876;2023-05-01T10:10:16;56077.09;;;-140.56;44.33
10482;BME280;5288;42.334;23.876;2023-05-01T10:12:44;56102.81;;;-140.56;40.51
10482;BME280;5288;42.334;23.876;2023-05-01T10:15:11;56057.34;;;-140.56;40.99
10482;BME280;5288;42.334;23.876;2023-05-01T10:17:39;56047.47;;;-140.56;40.10
10482;BME280;5288;42.334;23.876;2023-05-01T10:20:09;56053.41;;;-140.56;40.14
10482;BME280;5288;42.334;23.876;2023-05-01T10:22:37;56065.25;;;-140.56;41.59
10482;BME280;5288;42.334;23.876;2023-05-01T10:25:07;56063.28;;;-140.56;39.93
10482;BME280;5288;42.334;23.876;2023-05-01T10:27:34;56037.59;;;-140.56;39.65
10482;BME280;5288;42.334;23.876;2023-05-01T10:30:08;56051.41;;;-140.56;38.49
10482;BME280;5288;42.334;23.876;2023-05-01T10:32:36;56053.41;;;-140.56;39.15
10482;BME280;5288;42.334;23.876;2023-05-01T10:35:08;56031.66;;;-140.56;38.38
10482;BME280;5288;42.334;23.876;2023-05-01T10:37:43;56021.78;;;-140.56;37.84
10482;BME280;5288;42.334;23.876;2023-05-01T10:40:42;56043.50;;;-140.56;38.12
10482;BME280;5288;42.334;23.876;2023-05-01T10:43:13;56053.41;;;-140.56;38.36
10482;BME280;5288;42.334;23.876;2023-05-01T10:45:43;56075.13;;;-140.56;40.88
10482;BME280;5288;42.334;23.876;2023-05-01T10:48:11;56088.97;;;-140.56;40.74
10482;BME280;5288;42.334;23.876;2023-05-01T10:53:43;56081.06;;;-140.56;41.57
10482;BME280;5288;42.334;23.876;2023-05-01T10:56:40;56075.13;;;-140.56;40.45
10482;BME280;5288;42.334;23.876;2023-05-01T10:59:08;56069.22;;;-140.56;42.94
10482;BME280;5288;42.334;23.876;2023-05-01T11:01:40;56128.50;;;-140.56;42.36
10482;BME280;5288;42.334;23.876;2023-05-01T11:07:19;56108.72;;;-140.56;42.23
10482;BME280;5288;42.334;23.876;2023-05-01T11:09:48;56114.66;;;-140.56;43.48
10482;BME280;5288;42.334;23.876;2023-05-01T11:15:28;56083.03;;;-140.56;41.01
10482;BME280;5288;42.334;23.876;2023-05-01T11:17:58;56087.00;;;-140.56;39.96
10482;BME280;5288;42.334;23.876;2023-05-01T11:20:58;56067.22;;;-140.56;41.53
10482;BME280;5288;42.334;23.876;2023-05-01T11:23:27;56059.31;;;-140.56;41.27
10482;BME280;5288;42.334;23.876;2023-05-01T11:26:01;56039.56;;;-140.56;40.85
10482;BME280;5288;42.334;23.876;2023-05-01T11:28:29;56011.91;;;-140.56;38.72
10482;BME280;5288;42.334;23.876;2023-05-01T11:30:58;56081.06;;;-140.56;39.24
10482;BME280;5288;42.334;23.876;2023-05-01T11:33:26;56027.72;;;-140.56;38.62
10482;BME280;5288;42.334;23.876;2023-05-01T11:36:00;56063.28;;;-140.56;38.56
10482;BME280;5288;42.334;23.876;2023-05-01T11:38:27;56013.88;;;-140.56;38.52
10482;BME280;5288;42.334;23.876;2023-05-01T11:40:57;56055.38;;;-140.56;38.69
10482;BME280;5288;42.334;23.876;2023-05-01T11:43:25;56039.56;;;-140.56;39.05
10482;BME280;5288;42.334;23.876;2023-05-01T11:45:52;56035.63;;;-140.56;37.97
10482;BME280;5288;42.334;23.876;2023-05-01T11:48:27;56027.72;;;-140.56;38.03
10482;BME280;5288;42.334;23.876;2023-05-01T11:50:55;56041.53;;;-140.56;38.48
10482;BME280;5288;42.334;23.876;2023-05-01T11:53:22;56043.50;;;-140.56;37.87
10482;BME280;5288;42.334;23.876;2023-05-01T11:55:49;56039.56;;;-140.56;39.06
10482;BME280;5288;42.334;23.876;2023-05-01T11:58:16;56057.34;;;-140.56;38.40
10482;BME280;5288;42.334;23.876;2023-05-01T12:00:43;56053.41;;;-140.56;39.43
10482;BME280;5288;42.334;23.876;2023-05-01T12:03:12;56019.81;;;-140.56;38.90
10482;BME280;5288;42.334;23.876;2023-05-01T12:05:42;56037.59;;;-140.56;37.77
10482;BME280;5288;42.334;23.876;2023-05-01T12:08:12;56051.41;;;-140.56;39.42
10482;BME280;5288;42.334;23.876;2023-05-01T12:10:41;56047.47;;;-140.56;39.18
10482;BME280;5288;42.334;23.876;2023-05-01T12:13:10;56015.84;;;-140.56;37.50
10482;BME280;5288;42.334;23.876;2023-05-01T12:15:40;56031.66;;;-140.56;38.29
10482;BME280;5288;42.334;23.876;2023-05-01T12:18:08;55992.13;;;-140.56;37.68
10482;BME280;5288;42.334;23.876;2023-05-01T12:20:39;56005.97;;;-140.56;37.19
10482;BME280;5288;42.334;23.876;2023-05-01T12:23:09;56011.91;;;-140.56;36.76
10482;BME280;5288;42.334;23.876;2023-05-01T12:25:36;56069.22;;;-140.56;37.12
10482;BME280;5288;42.334;23.876;2023-05-01T12:28:08;56041.53;;;-140.56;38.41
10482;BME280;5288;42.334;23.876;2023-05-01T12:30:36;56035.63;;;-140.56;39.29
10482;BME280;5288;42.334;23.876;2023-05-01T12:33:10;56025.72;;;-140.56;38.13
10482;BME280;5288;42.334;23.876;2023-05-01T12:35:38;56049.44;;;-140.56;37.90
10482;BME280;5288;42.334;23.876;2023-05-01T12:38:11;56051.41;;;-140.56;38.20
10482;BME280;5288;42.334;23.876;2023-05-01T12:40:48;56065.25;;;-140.56;38.72
10482;BME280;5288;42.334;23.876;2023-05-01T12:43:16;56061.31;;;-140.56;38.72
10482;BME280;5288;42.334;23.876;2023-05-01T12:45:47;56053.41;;;-140.56;38.63
10482;BME280;5288;42.334;23.876;2023-05-01T12:48:17;56098.84;;;-140.56;39.21
10482;BME280;5288;42.334;23.876;2023-05-01T12:50:44;56073.16;;;-140.56;39.44
10482;BME280;5288;42.334;23.876;2023-05-01T12:53:14;56069.22;;;-140.56;40.28
10482;BME280;5288;42.334;23.876;2023-05-01T12:55:43;56079.09;;;-140.56;40.64
10482;BME280;5288;42.334;23.876;2023-05-01T12:58:11;56075.13;;;-140.56;40.65
10482;BME280;5288;42.334;23.876;2023-05-01T13:00:45;56098.84;;;-140.56;40.83